Details From EGNS - Isle Of Man Ronaldsway
To EGPC - Wick
Flight Number -
Tags generated
Created
Modified
Stats Distance 270 nm / 500 km
Max Altitude 20,000 ft / 6,096 m
Waypoints 7
Social Downloads 1
Likes 0
Share

Download

Looking for another format? Having issues loading an existing format? Contact us
Advertisement - Login to hide

Notes

Basic altitude profile: - Ascent Rate: 2500ft/min - Ascent Speed: 150kts - Cruise Altitude: 20000ft - Cruise Speed: 220kts - Descent Rate: 1500ft/min - Descent Speed: 200kts Options: - Use NATs: yes - Use PACOTS: yes - Use low airways: yes - Use high airways: yes

Route

EGNS GOW N560 LAGAV EGPC

ID Type Via Altitude (ft/m) Position (lat/lon) Dist (leg/tot) Name
O EGNS APT - 0 / 0 54.08280 / -4.62548 - / 0 nm Isle Of Man Ronaldsway
GOW VOR - 20,000 / 6,096 55.87050 / -4.44572 107 / 107 nm GLASGOW
FOYLE FIX N560 (AWY-LO) 20,000 / 6,096 56.14280 / -4.38222 16 / 124 nm
ERSON FIX N560 (AWY-LO) 20,000 / 6,096 56.46330 / -4.30667 19 / 143 nm
INBAS FIX N560 (AWY-LO) 20,000 / 6,096 56.70000 / -4.24972 14 / 157 nm
LAGAV FIX N560 (AWY-LO) 20,000 / 6,096 56.89310 / -4.20278 11 / 169 nm
O EGPC APT - 0 / 0 58.45880 / -3.09296 100 / 270 nm Wick

Altitude Profile

Advertisement - Login to hide

Weather


0- 5 10 15 20 25 30 35+ Temperature / °C

Clouds and Precipitation
Forecast for 2022-08-08 18:00 UTC. Updated 3 hours ago

Ground ~20,000 ft ~40,000 ft Winds

EGNS

Details ICAO EGNS (IOM)
Name Isle Of Man Ronaldsway
Region United Kingdom
Timezone Europe/Isle_of_Man (UTC+1.0)
Stats Elevation 51 ft / 16 m (AMSL)
Location 54.082800° -4.625480°
Runways 2
Magnetic Variation 1.727° W

METAR

EGNS 081820Z 23006KT CAVOK 19/11 Q1028 NOSIG

Decode

TAF

Not found

Departure Runways

ID Width Length Bearing (true/mag) Surface Threshold Overrun Markings Lighting
03 151 ft / 46 m 4,121 ft / 1,256 m 27.91° / 29.64° ASPHALT 492 ft / 150 m 0 ft / 0 m UK-APP EDGE THRESHOLD
08 151 ft / 46 m 6,008 ft / 1,831 m 77.95° / 79.68° ASPHALT 545 ft / 166 m 0 ft / 0 m UK-PREC-APP EDGE THRESHOLD CALVERT REIL-OMNI
21 151 ft / 46 m 4,121 ft / 1,256 m 207.92° / 209.65° ASPHALT 0 ft / 0 m 0 ft / 0 m UK-APP EDGE THRESHOLD MALS
26 151 ft / 46 m 6,008 ft / 1,831 m 257.97° / 259.70° ASPHALT 486 ft / 148 m 0 ft / 0 m UK-PREC-APP EDGE THRESHOLD CALVERT REIL-OMNI

EGPC

Details ICAO EGPC (WIC)
Name Wick
Region United Kingdom
Timezone Europe/London (UTC+1.0)
Stats Elevation 125 ft / 38 m (AMSL)
Location 58.458800° -3.092960°
Runways 1
Magnetic Variation 1.779° W

METAR

EGPC 081820Z 19008KT 150V220 9999 VCSH BKN031 17/14 Q1024

Decode

TAF

Not found

Destination Runways

ID Width Length Bearing (true/mag) Surface Threshold Overrun Markings Lighting
13 148 ft / 45 m 5,992 ft / 1,826 m 127.02° / 128.79° ASPHALT 814 ft / 248 m 0 ft / 0 m UK-APP EDGE THRESHOLD MALS REIL-UNI
31 148 ft / 45 m 5,992 ft / 1,826 m 307.04° / 308.81° ASPHALT 1,010 ft / 308 m 0 ft / 0 m UK-APP EDGE THRESHOLD MALS REIL-UNI

Popular Alternatives